»·PEaware :: N4D KGPI-KOLM

N4D :: KGPI-KOLM

FLIGHT INFORMATION

Flight Status: Arrived
Operator: Privately registered:
United States
More flights under this callsign
Pilot: Alec D. (17934)
Aircraft: BEECH AIRCRAFT SUPER KING AIR COMMUTER
(BE20)
More flights by this aircraft type
Origin: KGPI Glacier Park Intl
United States
Destination: KOLM Olympia
United States
More flights between these airports :: More routes between these airports
Route: KILLY1 EYCHO MLP J70 SEA
File this flight plan on PilotEdge
Remarks:
Altitude:
(Current/Filed)
28,000ft
Speed:
(Current/Filed)
310kts
Departed: 08-Oct-18 01:57 PM
Arrived: 08-Oct-18 03:36 PM
Distance/Time
Traveled:
358nm/1:39
Distance/Time
To Go:
Arrived

Flight Plot

Page will automatically refresh every two minutes.

Flight plan parsing failed; only flown route is shown


Map Options




Map Legend


Flown Route
Filed Route
Departure Airport
Arrival Airport
Navaid (VOR, NDB)
Fix

Horizontal Profiles

Position Reports

Time Latitude Longitude Heading Altitude Ground
Speed
08-Oct-18 13:33 48.309583 -114.250971 143 2981ft 0kts
08-Oct-18 13:34 48.309583 -114.250971 143 2981ft 0kts
08-Oct-18 13:35 48.309583 -114.250971 143 2981ft 0kts
08-Oct-18 13:36 48.309583 -114.250971 143 2981ft 0kts
08-Oct-18 13:37 48.309583 -114.250971 143 2981ft 0kts
08-Oct-18 13:38 48.309583 -114.250971 143 2981ft 0kts
08-Oct-18 13:39 48.309583 -114.250971 143 2981ft 0kts
08-Oct-18 13:40 48.309583 -114.250971 143 2981ft 0kts
08-Oct-18 13:41 48.309582 -114.250969 143 2981ft 0kts
08-Oct-18 13:42 48.309577 -114.250964 143 2981ft 0kts
08-Oct-18 13:43 48.309571 -114.250957 143 2981ft 0kts
08-Oct-18 13:44 48.309565 -114.250950 143 2981ft 0kts
08-Oct-18 13:45 48.309559 -114.250944 143 2981ft 0kts
08-Oct-18 13:46 48.309557 -114.250942 143 2981ft 0kts
08-Oct-18 13:47 48.309555 -114.250939 143 2981ft 0kts
08-Oct-18 13:48 48.309553 -114.250937 143 2981ft 0kts
08-Oct-18 13:49 48.309551 -114.250935 143 2981ft 0kts
08-Oct-18 13:50 48.309549 -114.250933 143 2981ft 0kts
08-Oct-18 13:51 48.309547 -114.250930 143 2981ft 0kts
08-Oct-18 13:52 48.309587 -114.250610 354 2981ft 5kts
08-Oct-18 13:53 48.310032 -114.254394 216 2981ft 17kts
08-Oct-18 13:54 48.305393 -114.259169 213 2981ft 21kts
08-Oct-18 13:55 48.300956 -114.263868 216 2981ft 14kts
08-Oct-18 13:56 48.300836 -114.264378 297 2981ft 0kts
08-Oct-18 13:57 48.300837 -114.264381 297 2981ft 0kts
08-Oct-18 13:58 48.301359 -114.264976 33 2981ft 0kts
08-Oct-18 13:59 48.322160 -114.243837 33 3496ft 152kts
08-Oct-18 14:00 48.364231 -114.221239 331 5570ft 179kts
08-Oct-18 14:01 48.395978 -114.280332 304 7446ft 186kts
08-Oct-18 14:02 48.425531 -114.346710 304 9152ft 195kts
08-Oct-18 14:03 48.422665 -114.422754 235 10881ft 200kts
08-Oct-18 14:04 48.388660 -114.488387 229 12658ft 201kts
08-Oct-18 14:05 48.341728 -114.532358 184 14061ft 216kts
08-Oct-18 14:06 48.280742 -114.534073 183 15662ft 221kts
08-Oct-18 14:07 48.218011 -114.538567 190 17105ft 231kts
08-Oct-18 14:08 48.154250 -114.556773 210 18509ft 233kts
08-Oct-18 14:09 48.101423 -114.611992 226 19925ft 233kts
08-Oct-18 14:10 48.051033 -114.674360 227 21323ft 237kts
08-Oct-18 14:11 47.998272 -114.739160 228 22548ft 249kts
08-Oct-18 14:12 47.944277 -114.806581 234 23796ft 254kts
08-Oct-18 14:13 47.897512 -114.885277 240 25002ft 255kts
08-Oct-18 14:14 47.851219 -114.966516 240 26204ft 257kts
08-Oct-18 14:15 47.803676 -115.049502 239 27280ft 268kts
08-Oct-18 14:16 47.754447 -115.135040 239 28062ft 285kts
08-Oct-18 14:17 47.700812 -115.228157 239 28053ft 303kts
08-Oct-18 14:18 47.645399 -115.323360 238 28051ft 307kts
08-Oct-18 14:19 47.589456 -115.419430 239 28050ft 308kts
08-Oct-18 14:20 47.533147 -115.516084 238 28050ft 309kts
08-Oct-18 14:21 47.477044 -115.612404 243 28048ft 305kts
08-Oct-18 14:22 47.458904 -115.724748 275 28051ft 276kts
08-Oct-18 14:23 47.456419 -115.837388 278 28050ft 274kts
08-Oct-18 14:24 47.455306 -115.949907 278 28051ft 274kts
08-Oct-18 14:25 47.454354 -116.061540 278 28052ft 273kts
08-Oct-18 14:26 47.453361 -116.174799 278 28053ft 273kts
08-Oct-18 14:27 47.452277 -116.287223 278 28054ft 273kts
08-Oct-18 14:28 47.451108 -116.399153 278 28052ft 273kts
08-Oct-18 14:29 47.449815 -116.511067 278 28055ft 272kts
08-Oct-18 14:30 47.448205 -116.623597 278 28036ft 275kts
08-Oct-18 14:31 47.447013 -116.735641 278 28068ft 272kts
08-Oct-18 14:32 47.445398 -116.847424 278 28068ft 272kts
08-Oct-18 14:33 47.443838 -116.959325 279 28082ft 270kts
08-Oct-18 14:34 47.441963 -117.070796 278 28058ft 272kts
08-Oct-18 14:35 47.439847 -117.182247 278 28059ft 271kts
08-Oct-18 14:36 47.437764 -117.293894 278 28059ft 271kts
08-Oct-18 14:37 47.435668 -117.404920 278 28067ft 270kts
08-Oct-18 14:38 47.433447 -117.516595 277 28051ft 272kts
08-Oct-18 14:39 47.431254 -117.627541 277 28067ft 271kts
08-Oct-18 14:40 47.428444 -117.738891 277 28074ft 270kts
08-Oct-18 14:41 47.425897 -117.849751 277 28078ft 270kts
08-Oct-18 14:42 47.423387 -117.960156 277 28078ft 269kts
08-Oct-18 14:43 47.420532 -118.070772 278 28068ft 268kts
08-Oct-18 14:44 47.417580 -118.180796 278 28067ft 268kts
08-Oct-18 14:45 47.414628 -118.290466 278 28066ft 267kts
08-Oct-18 14:46 47.411553 -118.400449 278 28065ft 267kts
08-Oct-18 14:47 47.408369 -118.510213 278 28064ft 267kts
08-Oct-18 14:48 47.405085 -118.619703 278 28064ft 267kts
08-Oct-18 14:49 47.401686 -118.729412 278 28063ft 266kts
08-Oct-18 14:50 47.398199 -118.838352 279 28062ft 265kts
08-Oct-18 14:51 47.394592 -118.947342 279 28061ft 265kts
08-Oct-18 14:52 47.390910 -119.055803 279 28060ft 264kts
08-Oct-18 14:53 47.387313 -119.163804 280 28060ft 263kts
08-Oct-18 14:54 47.383539 -119.271864 280 28060ft 262kts
08-Oct-18 14:55 47.379614 -119.379270 280 28054ft 262kts
08-Oct-18 14:56 47.379529 -119.485197 285 28052ft 255kts
08-Oct-18 14:57 47.383015 -119.589812 285 28051ft 254kts
08-Oct-18 14:58 47.386271 -119.693604 285 28051ft 253kts
08-Oct-18 14:59 47.389358 -119.797434 285 28053ft 252kts
08-Oct-18 15:00 47.392333 -119.900739 285 28050ft 252kts
08-Oct-18 15:01 47.395177 -120.003911 285 28050ft 251kts
08-Oct-18 15:02 47.398011 -120.107217 286 28050ft 251kts
08-Oct-18 15:03 47.400812 -120.209929 286 28050ft 250kts
08-Oct-18 15:04 47.403421 -120.312697 286 28050ft 250kts
08-Oct-18 15:05 47.405912 -120.415785 285 28049ft 251kts
08-Oct-18 15:06 47.408280 -120.518546 285 28048ft 250kts
08-Oct-18 15:07 47.410559 -120.621047 285 28040ft 250kts
08-Oct-18 15:08 47.412777 -120.723717 285 28036ft 249kts
08-Oct-18 15:09 47.414845 -120.824934 285 27117ft 244kts
08-Oct-18 15:10 47.416975 -120.926431 284 25617ft 248kts
08-Oct-18 15:11 47.418928 -121.028744 283 24108ft 251kts
08-Oct-18 15:12 47.420824 -121.132342 281 22515ft 254kts
08-Oct-18 15:13 47.422617 -121.237572 280 20913ft 257kts
08-Oct-18 15:14 47.424296 -121.343408 279 19317ft 259kts
08-Oct-18 15:15 47.426059 -121.450300 277 17721ft 262kts
08-Oct-18 15:16 47.427648 -121.558297 277 16180ft 260kts
08-Oct-18 15:17 47.428918 -121.662930 277 15992ft 251kts
08-Oct-18 15:18 47.430138 -121.765374 277 15992ft 248kts
08-Oct-18 15:19 47.431240 -121.866840 277 15923ft 249kts
08-Oct-18 15:20 47.432460 -121.971875 276 14141ft 257kts
08-Oct-18 15:21 47.433645 -122.077322 275 12339ft 255kts
08-Oct-18 15:22 47.434675 -122.181832 274 10543ft 255kts
08-Oct-18 15:23 47.435322 -122.283328 272 10000ft 238kts
08-Oct-18 15:24 47.418333 -122.376169 249 10000ft 232kts
08-Oct-18 15:25 47.393407 -122.463357 251 8911ft 240kts
08-Oct-18 15:26 47.369703 -122.557551 251 6910ft 245kts
08-Oct-18 15:27 47.346261 -122.651664 250 4914ft 243kts
08-Oct-18 15:28 47.322975 -122.744836 249 3091ft 235kts
08-Oct-18 15:29 47.283427 -122.809994 208 2770ft 207kts
08-Oct-18 15:30 47.234843 -122.832647 187 2998ft 161kts
08-Oct-18 15:31 47.191376 -122.838396 187 2996ft 155kts
08-Oct-18 15:32 47.148919 -122.850578 194 2996ft 155kts
08-Oct-18 15:33 47.108472 -122.863997 191 2875ft 141kts
08-Oct-18 15:34 47.071089 -122.874717 191 2078ft 131kts
08-Oct-18 15:35 47.036336 -122.884904 190 1407ft 124kts
08-Oct-18 15:36 47.005194 -122.893933 191 829ft 108kts
08-Oct-18 15:37 46.976863 -122.902263 190 230ft 94kts
08-Oct-18 15:38 46.967563 -122.904050 89 210ft 0kts
08-Oct-18 15:39 46.967542 -122.901964 88 210ft 12kts
08-Oct-18 15:40 46.970434 -122.898750 54 210ft 17kts
08-Oct-18 15:41 46.972247 -122.894126 25 210ft 1kts
08-Oct-18 15:42 46.972314 -122.894146 329 210ft 0kts
08-Oct-18 15:43 46.972314 -122.894146 329 210ft 0kts
08-Oct-18 15:44 46.972314 -122.894146 329 210ft 0kts
08-Oct-18 15:45 46.972314 -122.894146 329 210ft 0kts
08-Oct-18 15:46 46.972314 -122.894146 329 210ft 0kts
08-Oct-18 15:47 46.972314 -122.894146 329 210ft 0kts
08-Oct-18 15:48 46.972314 -122.894146 329 210ft 0kts
08-Oct-18 15:49 46.972314 -122.894146 329 210ft 0kts
08-Oct-18 15:50 46.972314 -122.894146 329 210ft 0kts
08-Oct-18 15:51 46.972314 -122.894146 329 210ft 0kts
08-Oct-18 15:52 46.972314 -122.894146 329 210ft 0kts

Navigation Log

Ident Type
Flight plan parsing failed, navigation log unavailable